Time;durP1;ratioP1;P1;durP2;ratioP2;P2;SDS_P1;SDS_P2;PMS_P1;PMS_P2;Temp;Humidity;BMP_temperature;BMP_pressure;BME280_temperature;BME280_humidity;BME280_pressure;Samples;Min_cycle;Max_cycle;Signal;HPM_P1;HPM_P2
2022/07/15 00:01:19;;;;;;;1.87;1.10;;;13.30;99.90;;;;;;5047428;28;20582;-67
2022/07/15 00:03:47;;;;;;;3.23;1.50;;;13.10;99.90;;;;;;5067011;28;20182;-67
2022/07/15 00:06:15;;;;;;;4.30;0.93;;;13.20;99.90;;;;;;5071981;28;20285;-68
2022/07/15 00:08:43;;;;;;;2.07;1.00;;;13.60;99.90;;;;;;5072037;28;20212;-66
2022/07/15 00:11:11;;;;;;;2.67;1.00;;;13.60;99.90;;;;;;5069028;28;20203;-67
2022/07/15 00:13:38;;;;;;;1.67;1.00;;;13.70;99.90;;;;;;5069253;28;20214;-67
2022/07/15 00:16:06;;;;;;;5.87;1.13;;;13.40;99.90;;;;;;5071672;28;20176;-66
2022/07/15 00:18:34;;;;;;;114.77;8.13;;;13.70;99.90;;;;;;5072552;28;20200;-72
2022/07/15 00:21:01;;;;;;;2.50;0.80;;;15.40;99.90;;;;;;5072370;28;20219;-69
2022/07/15 00:23:29;;;;;;;6.30;1.37;;;17.90;99.90;;;;;;5072302;28;20201;-67
2022/07/15 00:29:01;;;;;;;1.97;0.87;;;18.50;99.90;;;;;;5089855;27;20571;-72
2022/07/15 00:31:29;;;;;;;2.97;0.87;;;22.80;99.90;;;;;;5089674;28;20193;-71
2022/07/15 00:33:57;;;;;;;1.50;0.63;;;25.20;89.60;;;;;;5089603;28;20270;-70
2022/07/15 00:36:28;;;;;;;1.30;0.77;;;24.90;77.50;;;;;;5104030;28;20182;-71
2022/07/15 00:40:50;;;;;;;0.75;0.40;;;23.90;63.30;;;;;;4921310;27;4220905;-71
2022/07/15 00:43:20;;;;;;;6.63;0.90;;;21.40;86.50;;;;;;5059512;28;20204;-70
2022/07/15 00:45:49;;;;;;;79.40;6.13;;;21.50;95.20;;;;;;4971768;28;20227;-76
2022/07/15 00:48:17;;;;;;;0.60;0.60;;;22.20;83.90;;;;;;4980418;28;20679;-68
2022/07/15 00:50:45;;;;;;;1.63;0.60;;;20.40;99.90;;;;;;4989922;28;20179;-71
2022/07/15 00:53:22;;;;;;;1.33;0.70;;;19.30;99.90;;;;;;4970074;28;20202;-68
2022/07/15 00:55:54;;;;;;;1.67;0.63;;;18.60;99.90;;;;;;4988779;28;20184;-68
2022/07/15 00:58:26;;;;;;;1.27;0.77;;;18.50;99.90;;;;;;4988195;28;20578;-72
2022/07/15 01:00:56;;;;;;;0.70;0.70;;;18.60;99.90;;;;;;4982254;28;20186;-72
2022/07/15 01:03:27;;;;;;;0.70;0.70;;;18.20;99.90;;;;;;4969605;28;20175;-72
2022/07/15 01:05:56;;;;;;;1.33;0.70;;;18.40;99.90;;;;;;4970341;28;20595;-70
2022/07/15 01:08:25;;;;;;;3.30;1.23;;;19.20;99.90;;;;;;4970809;28;20541;-69
2022/07/15 01:10:52;;;;;;;1.40;0.63;;;19.60;99.90;;;;;;4977500;28;20190;-74
2022/07/15 01:13:23;;;;;;;1.67;0.60;;;19.60;99.90;;;;;;4989858;28;20583;-73
2022/07/15 01:15:50;;;;;;;1.10;0.60;;;19.60;99.90;;;;;;4989837;28;20179;-72
2022/07/15 01:18:18;;;;;;;4.53;0.70;;;19.50;99.90;;;;;;4989390;28;20179;-71
2022/07/15 01:20:47;;;;;;;2.00;0.70;;;19.50;99.90;;;;;;4976604;28;20209;-69
2022/07/15 01:23:16;;;;;;;2.47;0.90;;;19.50;99.90;;;;;;4989750;28;20233;-70
2022/07/15 01:25:44;;;;;;;1.00;0.73;;;19.60;99.90;;;;;;4989428;28;20715;-69
2022/07/15 01:28:13;;;;;;;2.00;0.70;;;19.50;99.90;;;;;;4986540;28;20198;-69
2022/07/15 01:30:40;;;;;;;2.07;0.60;;;19.70;99.90;;;;;;4974953;28;20226;-69
2022/07/15 01:33:08;;;;;;;1.60;0.57;;;20.20;99.90;;;;;;4989450;28;20189;-69
2022/07/15 01:35:36;;;;;;;1.07;0.60;;;19.80;99.90;;;;;;4989300;28;20243;-70
2022/07/15 01:38:03;;;;;;;1.27;0.53;;;19.90;99.90;;;;;;4985550;28;20200;-70
2022/07/15 01:40:31;;;;;;;1.30;0.83;;;20.10;99.90;;;;;;4972211;28;20314;-69
2022/07/15 01:42:59;;;;;;;0.53;0.50;;;20.40;99.90;;;;;;4989458;28;20191;-69
2022/07/15 01:45:27;;;;;;;2.50;0.80;;;20.40;99.90;;;;;;4989358;28;20663;-70
2022/07/15 01:47:55;;;;;;;1.37;1.03;;;20.30;99.90;;;;;;4989182;28;20183;-70
2022/07/15 01:50:23;;;;;;;1.87;0.60;;;20.30;99.90;;;;;;4980045;28;20250;-70
2022/07/15 01:52:51;;;;;;;0.50;0.50;;;20.10;99.90;;;;;;4956761;28;20216;-70
2022/07/15 01:55:19;;;;;;;1.87;0.90;;;20.10;99.90;;;;;;4956565;29;20191;-70
2022/07/15 01:57:46;;;;;;;3.60;0.70;;;20.10;99.90;;;;;;4956531;29;20182;-70
2022/07/15 02:00:16;;;;;;;1.73;0.60;;;20.40;99.90;;;;;;4956579;29;20197;-69
2022/07/15 02:02:44;;;;;;;1.13;0.60;;;20.40;99.90;;;;;;4967533;28;20209;-71
2022/07/15 02:05:11;;;;;;;0.80;0.80;;;20.50;99.90;;;;;;4972308;28;20183;-69
2022/07/15 02:07:39;;;;;;;1.70;0.93;;;21.00;99.10;;;;;;4956357;29;20192;-69
2022/07/15 02:10:07;;;;;;;1.17;0.63;;;20.40;98.70;;;;;;4956224;28;20227;-69
2022/07/15 02:12:35;;;;;;;2.73;0.70;;;20.60;99.00;;;;;;4965195;28;20238;-69
2022/07/15 02:15:03;;;;;;;1.37;0.60;;;20.30;98.50;;;;;;4975629;28;20262;-69
2022/07/15 02:17:31;;;;;;;1.63;0.80;;;20.40;97.90;;;;;;4975613;28;20186;-69
2022/07/15 02:19:58;;;;;;;1.80;0.77;;;20.60;96.60;;;;;;4975632;28;20952;-70
2022/07/15 02:22:26;;;;;;;5.57;0.67;;;20.80;94.60;;;;;;4960157;28;20691;-69
2022/07/15 02:24:54;;;;;;;3.13;0.73;;;21.00;92.30;;;;;;4956087;29;20234;-68
2022/07/15 02:27:21;;;;;;;2.17;0.57;;;20.90;94.00;;;;;;4956241;29;20207;-69
2022/07/15 02:29:49;;;;;;;4.90;0.50;;;20.70;90.20;;;;;;4955898;29;20629;-69
2022/07/15 02:32:17;;;;;;;1.30;0.70;;;20.50;89.70;;;;;;4966962;28;20533;-69
2022/07/15 02:34:46;;;;;;;2.77;0.60;;;20.70;88.60;;;;;;4975207;28;20262;-69
2022/07/15 02:37:14;;;;;;;1.83;0.60;;;20.90;85.20;;;;;;4956296;28;20191;-69
2022/07/15 02:39:41;;;;;;;6.10;1.03;;;20.60;87.10;;;;;;4954365;28;20237;-69
2022/07/15 02:42:09;;;;;;;2.47;1.10;;;20.60;86.60;;;;;;4960244;28;20199;-69
2022/07/15 02:44:37;;;;;;;1.87;0.50;;;20.60;87.60;;;;;;4970050;28;20198;-69
2022/07/15 02:47:04;;;;;;;5.27;0.50;;;20.70;86.20;;;;;;4955827;29;20180;-69
2022/07/15 02:49:32;;;;;;;4.60;0.70;;;20.80;85.20;;;;;;4955782;29;20219;-69
2022/07/15 02:52:00;;;;;;;1.33;0.60;;;20.60;88.10;;;;;;4955653;28;20612;-69
2022/07/15 02:54:28;;;;;;;0.77;0.50;;;20.20;82.10;;;;;;4954125;28;20663;-69
2022/07/15 02:56:55;;;;;;;2.67;0.50;;;19.90;85.10;;;;;;4956004;28;20321;-70
2022/07/15 02:59:23;;;;;;;3.93;0.67;;;20.60;90.50;;;;;;4960443;28;20226;-69
2022/07/15 03:01:51;;;;;;;1.07;0.60;;;20.80;91.20;;;;;;4974116;28;20194;-69
2022/07/15 03:04:18;;;;;;;4.80;0.87;;;20.70;81.50;;;;;;4972572;28;20264;-70
2022/07/15 03:06:46;;;;;;;2.67;0.80;;;20.00;87.70;;;;;;4955414;29;20263;-68
2022/07/15 03:09:14;;;;;;;1.20;0.60;;;20.10;80.70;;;;;;4955214;28;20206;-68
2022/07/15 03:11:42;;;;;;;1.27;0.80;;;20.30;84.00;;;;;;4955338;28;20205;-68
2022/07/15 03:14:09;;;;;;;5.43;0.77;;;20.00;83.80;;;;;;4970756;28;20187;-68
2022/07/15 03:16:37;;;;;;;3.73;0.73;;;20.30;80.70;;;;;;4974303;28;20195;-68
2022/07/15 03:19:05;;;;;;;1.70;0.70;;;20.70;79.50;;;;;;4973266;28;20190;-69
2022/07/15 03:21:33;;;;;;;2.70;0.63;;;20.70;77.20;;;;;;4974444;28;20179;-69
2022/07/15 03:24:01;;;;;;;1.17;0.53;;;21.00;78.50;;;;;;4968384;28;20633;-69
2022/07/15 03:26:29;;;;;;;0.40;0.40;;;21.40;75.80;;;;;;4954987;29;20676;-69
2022/07/15 03:28:57;;;;;;;3.53;0.73;;;21.40;68.70;;;;;;4962208;28;20266;-69
2022/07/15 03:31:25;;;;;;;1.00;0.60;;;21.30;69.70;;;;;;4974126;28;20202;-69
2022/07/15 03:33:53;;;;;;;1.00;0.60;;;20.90;68.60;;;;;;4969558;28;20184;-69
2022/07/15 03:36:20;;;;;;;0.83;0.53;;;20.80;64.90;;;;;;4954981;28;20241;-69
2022/07/15 03:38:49;;;;;;;5.60;0.60;;;20.60;70.90;;;;;;4954716;28;20219;-69
2022/07/15 03:41:16;;;;;;;2.53;0.70;;;20.90;72.80;;;;;;4961654;28;20186;-69
2022/07/15 03:43:44;;;;;;;0.60;0.60;;;20.80;71.40;;;;;;4972505;28;20188;-69
2022/07/15 03:46:14;;;;;;;2.97;0.70;;;20.60;72.20;;;;;;4954684;29;20183;-69
2022/07/15 03:48:42;;;;;;;0.67;0.50;;;20.50;70.70;;;;;;4962322;28;20251;-69
2022/07/15 03:51:10;;;;;;;1.83;0.63;;;20.60;76.80;;;;;;4958838;28;20250;-69
2022/07/15 03:53:37;;;;;;;1.73;0.60;;;20.90;72.00;;;;;;4962375;28;20663;-70
2022/07/15 03:56:05;;;;;;;1.23;0.60;;;20.70;66.10;;;;;;4968311;28;20191;-70
2022/07/15 03:58:33;;;;;;;2.03;0.70;;;20.60;74.40;;;;;;4959182;28;20212;-69
2022/07/15 04:01:01;;;;;;;2.77;0.73;;;20.50;66.90;;;;;;4962843;28;20659;-70
2022/07/15 04:03:29;;;;;;;2.57;0.90;;;20.60;70.60;;;;;;4969752;28;20584;-68
2022/07/15 04:05:56;;;;;;;1.43;0.60;;;21.00;76.10;;;;;;4954400;28;20183;-69
2022/07/15 04:08:25;;;;;;;2.40;0.70;;;21.10;72.50;;;;;;4954158;28;20207;-69
2022/07/15 04:10:53;;;;;;;1.23;0.60;;;21.30;73.60;;;;;;4954112;28;20192;-69
2022/07/15 04:13:20;;;;;;;2.80;0.70;;;21.40;70.50;;;;;;4973063;28;20233;-69
2022/07/15 04:15:48;;;;;;;3.50;0.60;;;21.20;66.40;;;;;;4958530;28;20529;-69
2022/07/15 04:18:16;;;;;;;2.50;0.70;;;20.70;66.60;;;;;;4964864;28;20192;-69
2022/07/15 04:20:43;;;;;;;1.60;0.50;;;20.50;65.90;;;;;;4954540;28;20186;-69
2022/07/15 04:23:11;;;;;;;1.20;0.80;;;20.50;70.80;;;;;;4970975;28;20600;-70
2022/07/15 04:25:39;;;;;;;0.80;0.50;;;20.50;64.70;;;;;;4972634;28;20222;-69
2022/07/15 04:28:07;;;;;;;2.03;0.80;;;20.40;63.40;;;;;;4972786;28;20209;-69
2022/07/15 04:30:36;;;;;;;4.83;0.90;;;20.40;68.20;;;;;;4957092;28;20693;-69
2022/07/15 04:33:03;;;;;;;2.83;0.70;;;20.10;64.70;;;;;;4952685;28;20603;-69
2022/07/15 04:35:32;;;;;;;1.87;0.50;;;20.40;71.20;;;;;;4954954;28;20192;-69
2022/07/15 04:37:59;;;;;;;4.70;0.70;;;20.50;67.20;;;;;;4957634;28;20548;-70
2022/07/15 04:40:27;;;;;;;1.83;0.70;;;20.50;66.90;;;;;;4964795;28;20640;-69
2022/07/15 04:42:57;;;;;;;1.10;0.80;;;20.50;66.30;;;;;;4960792;28;20179;-69
2022/07/15 04:45:25;;;;;;;1.33;0.70;;;20.20;67.30;;;;;;4973084;28;20211;-69
2022/07/15 04:47:53;;;;;;;1.03;0.60;;;20.10;65.10;;;;;;4973059;28;20180;-69
2022/07/15 04:53:07;;;;;;;1.67;0.73;;;20.00;62.00;;;;;;4953948;29;20247;-68
2022/07/15 04:55:35;;;;;;;1.00;0.70;;;19.90;63.90;;;;;;4953917;28;20686;-69
2022/07/15 04:58:02;;;;;;;2.63;0.50;;;;;;;;;;4953892;29;20605;-69
2022/07/15 05:00:30;;;;;;;2.37;0.70;;;19.40;61.60;;;;;;4961050;28;20187;-69
2022/07/15 05:02:58;;;;;;;0.77;0.57;;;19.30;63.20;;;;;;4973249;28;20254;-70
2022/07/15 05:05:26;;;;;;;4.03;0.63;;;19.40;65.90;;;;;;4964026;28;20176;-70
2022/07/15 05:07:53;;;;;;;5.40;0.70;;;19.60;61.90;;;;;;4961706;28;20662;-70
2022/07/15 05:10:21;;;;;;;0.43;0.40;;;19.60;59.00;;;;;;4957066;28;20211;-69
2022/07/15 05:12:49;;;;;;;1.23;0.67;;;19.60;59.80;;;;;;4973550;28;20215;-69
2022/07/15 05:15:16;;;;;;;1.17;0.60;;;19.40;61.10;;;;;;4973265;28;20190;-70
2022/07/15 05:17:44;;;;;;;2.43;0.60;;;19.20;62.70;;;;;;4973246;28;20188;-70
2022/07/15 05:20:12;;;;;;;1.07;0.63;;;18.60;63.50;;;;;;4971295;28;20175;-69
2022/07/15 05:22:40;;;;;;;0.60;0.60;;;18.70;64.50;;;;;;4953621;28;20193;-69
2022/07/15 05:25:08;;;;;;;3.20;0.70;;;18.80;62.10;;;;;;4952298;28;20738;-69
2022/07/15 05:27:35;;;;;;;0.90;0.63;;;18.80;60.20;;;;;;4966147;28;20258;-69
2022/07/15 05:30:03;;;;;;;1.23;0.67;;;18.60;60.40;;;;;;4974614;28;20281;-69
2022/07/15 05:32:31;;;;;;;1.63;1.13;;;18.60;66.80;;;;;;4957302;28;20191;-69
2022/07/15 05:34:59;;;;;;;1.70;0.70;;;18.40;61.80;;;;;;4957106;29;20274;-69
2022/07/15 05:37:26;;;;;;;0.83;0.70;;;18.20;61.90;;;;;;4957178;29;20235;-69
2022/07/15 05:39:54;;;;;;;0.80;0.67;;;17.90;67.30;;;;;;4970261;28;20692;-69
2022/07/15 05:42:23;;;;;;;0.83;0.70;;;17.60;64.60;;;;;;4957040;29;20216;-69
2022/07/15 05:44:51;;;;;;;2.70;0.60;;;17.40;67.30;;;;;;4956901;28;20188;-69
2022/07/15 05:47:19;;;;;;;3.57;0.63;;;17.20;66.10;;;;;;4957013;28;20642;-69
2022/07/15 05:49:46;;;;;;;0.90;0.70;;;17.00;72.70;;;;;;4957585;28;20208;-70
2022/07/15 05:52:14;;;;;;;1.83;0.90;;;16.70;73.80;;;;;;4976245;28;20238;-69
2022/07/15 05:54:42;;;;;;;2.60;0.80;;;16.60;80.40;;;;;;4975942;28;20702;-69
2022/07/15 05:57:10;;;;;;;0.70;0.70;;;16.40;81.90;;;;;;4976070;28;20637;-69
2022/07/15 05:59:38;;;;;;;3.93;0.80;;;16.30;86.30;;;;;;4971616;28;20258;-69
2022/07/15 06:02:06;;;;;;;4.63;0.70;;;16.10;86.40;;;;;;4963872;28;20234;-69
2022/07/15 06:04:34;;;;;;;0.70;0.60;;;15.90;89.10;;;;;;4975636;28;20195;-69
2022/07/15 06:07:02;;;;;;;2.87;0.83;;;15.90;94.50;;;;;;4975537;28;20241;-69
2022/07/15 06:09:30;;;;;;;1.53;0.80;;;15.80;99.90;;;;;;4974405;28;20707;-69
2022/07/15 06:11:58;;;;;;;3.70;0.90;;;15.60;99.90;;;;;;4956272;29;20192;-69
2022/07/15 06:14:26;;;;;;;1.50;0.80;;;15.50;99.90;;;;;;4956465;28;20176;-69
2022/07/15 06:16:53;;;;;;;3.50;0.90;;;15.40;99.90;;;;;;4963645;28;20209;-69
2022/07/15 06:19:21;;;;;;;1.10;0.80;;;15.30;99.90;;;;;;4975696;28;20644;-68
2022/07/15 06:21:49;;;;;;;1.57;0.80;;;15.20;99.90;;;;;;4963658;28;20187;-69
2022/07/15 06:24:17;;;;;;;1.57;0.67;;;15.10;99.90;;;;;;4955205;28;20180;-69
2022/07/15 06:26:44;;;;;;;1.73;0.90;;;15.00;99.90;;;;;;4955630;29;20254;-69
2022/07/15 06:29:12;;;;;;;1.97;0.97;;;14.90;99.90;;;;;;4956006;29;20208;-69
2022/07/15 06:31:40;;;;;;;4.10;1.40;;;14.80;99.90;;;;;;4956188;29;20180;-69
2022/07/15 06:34:07;;;;;;;3.30;1.30;;;14.70;99.90;;;;;;4955846;28;20199;-69
2022/07/15 06:36:35;;;;;;;3.00;1.23;;;14.60;99.90;;;;;;4956859;28;20195;-69
2022/07/15 06:39:04;;;;;;;4.07;1.00;;;14.40;99.90;;;;;;4956622;28;20237;-69
2022/07/15 06:41:32;;;;;;;2.03;1.20;;;14.20;99.90;;;;;;4955915;28;20180;-68
2022/07/15 06:44:01;;;;;;;3.83;1.17;;;14.10;99.90;;;;;;4954388;28;20218;-69
2022/07/15 06:46:29;;;;;;;2.20;0.90;;;13.90;99.90;;;;;;4973767;28;20684;-69
2022/07/15 06:48:56;;;;;;;2.23;0.90;;;13.80;99.90;;;;;;4974937;28;20222;-69
2022/07/15 06:51:24;;;;;;;5.10;1.10;;;13.70;99.90;;;;;;4974852;28;20204;-69
2022/07/15 06:53:52;;;;;;;2.13;1.17;;;13.50;99.90;;;;;;4955812;28;20282;-68
2022/07/15 06:56:19;;;;;;;2.37;1.10;;;13.40;99.90;;;;;;4971827;28;20205;-69
2022/07/15 06:58:47;;;;;;;5.30;1.60;;;13.30;99.90;;;;;;4974902;28;20225;-69
2022/07/15 07:01:15;;;;;;;2.27;1.00;;;13.20;99.90;;;;;;4974602;28;20202;-68
2022/07/15 07:03:42;;;;;;;3.00;1.13;;;13.00;99.90;;;;;;4955424;29;20183;-69
2022/07/15 07:06:10;;;;;;;2.13;1.17;;;12.90;99.90;;;;;;4955163;29;20195;-69
2022/07/15 07:08:38;;;;;;;3.17;1.77;;;12.80;99.90;;;;;;4955238;29;20186;-69
2022/07/15 07:11:06;;;;;;;4.20;1.60;;;12.60;99.90;;;;;;4955215;28;20189;-69
2022/07/15 07:13:33;;;;;;;4.10;1.33;;;12.50;99.90;;;;;;4953985;28;20281;-69
2022/07/15 07:16:01;;;;;;;4.40;1.53;;;12.40;99.90;;;;;;4966215;28;20274;-69
2022/07/15 07:18:29;;;;;;;6.87;1.57;;;12.20;99.90;;;;;;4963456;28;20192;-69
2022/07/15 07:20:57;;;;;;;4.60;1.57;;;12.10;99.90;;;;;;4969960;28;20180;-68
2022/07/15 07:23:26;;;;;;;11.13;1.77;;;12.00;99.90;;;;;;4960399;28;20199;-69
2022/07/15 07:25:54;;;;;;;3.30;1.30;;;11.90;99.90;;;;;;4960402;28;20215;-68
2022/07/15 07:28:22;;;;;;;4.50;1.97;;;11.80;99.90;;;;;;4956948;28;20644;-69
2022/07/15 07:30:52;;;;;;;4.57;1.87;;;11.70;99.90;;;;;;4953633;28;20228;-69
2022/07/15 07:33:19;;;;;;;3.17;1.63;;;11.70;99.90;;;;;;4965621;28;20191;-69
2022/07/15 07:35:47;;;;;;;7.73;2.30;;;11.60;99.90;;;;;;4974174;28;20186;-69
2022/07/15 07:38:15;;;;;;;5.80;2.10;;;11.50;99.90;;;;;;4963883;28;20203;-69
2022/07/15 07:40:43;;;;;;;3.17;1.80;;;11.50;99.90;;;;;;4954661;28;20263;-69
2022/07/15 07:43:11;;;;;;;7.70;2.73;;;11.40;99.90;;;;;;4953639;29;20275;-68
2022/07/15 07:45:38;;;;;;;3.90;1.93;;;11.30;99.90;;;;;;4954557;28;20208;-69
2022/07/15 07:48:10;;;;;;;3.87;2.20;;;11.10;99.90;;;;;;4960032;28;20183;-69
2022/07/15 07:50:38;;;;;;;5.13;2.20;;;11.00;99.90;;;;;;4973755;28;20223;-70
2022/07/15 07:53:06;;;;;;;5.37;2.40;;;11.00;99.90;;;;;;4964048;28;20691;-69
2022/07/15 07:55:34;;;;;;;7.90;3.50;;;11.00;99.90;;;;;;4954737;29;20215;-69
2022/07/15 07:58:02;;;;;;;6.77;4.53;;;10.90;99.90;;;;;;4954490;28;20195;-69
2022/07/15 08:00:31;;;;;;;9.60;3.80;;;10.90;99.90;;;;;;4954500;29;20222;-69
2022/07/15 08:03:01;;;;;;;7.43;3.70;;;10.80;99.90;;;;;;4954861;28;20175;-69
2022/07/15 08:05:29;;;;;;;6.63;3.23;;;10.80;99.90;;;;;;4955248;28;20183;-69
2022/07/15 08:08:12;;;;;;;8.03;3.27;;;10.70;99.90;;;;;;4955382;29;20180;-69
2022/07/15 08:10:41;;;;;;;8.03;3.13;;;10.70;99.90;;;;;;4955164;29;20208;-69
2022/07/15 08:13:09;;;;;;;6.00;3.27;;;10.60;99.90;;;;;;4955146;28;20198;-69
2022/07/15 08:15:37;;;;;;;7.43;4.47;;;10.60;99.90;;;;;;4955136;29;20201;-69
2022/07/15 08:18:05;;;;;;;18.63;8.57;;;10.60;99.90;;;;;;4965273;28;20196;-69
2022/07/15 08:20:33;;;;;;;22.17;11.93;;;10.50;99.90;;;;;;4969327;28;20194;-69
2022/07/15 08:23:01;;;;;;;26.30;14.93;;;10.40;99.90;;;;;;4973409;28;20191;-68
2022/07/15 08:25:31;;;;;;;24.53;14.10;;;10.40;99.90;;;;;;4957150;28;20189;-67
2022/07/15 08:27:59;;;;;;;27.03;16.53;;;10.30;99.90;;;;;;4955320;28;20272;-67
2022/07/15 08:30:28;;;;;;;21.37;10.07;;;10.30;99.90;;;;;;4958229;28;20215;-68
2022/07/15 08:32:56;;;;;;;23.87;12.77;;;10.20;99.90;;;;;;4971227;28;20633;-69
2022/07/15 08:35:25;;;;;;;18.97;11.47;;;10.20;99.90;;;;;;4969534;28;20521;-69
2022/07/15 08:37:53;;;;;;;18.83;9.33;;;10.10;99.90;;;;;;4954874;28;20238;-68
2022/07/15 08:40:21;;;;;;;15.00;8.10;;;10.10;99.90;;;;;;4954949;29;20701;-69
2022/07/15 08:42:49;;;;;;;15.77;7.13;;;10.00;99.90;;;;;;4955635;28;20191;-68
2022/07/15 08:45:18;;;;;;;18.13;6.97;;;9.90;99.90;;;;;;4964071;28;20356;-69
2022/07/15 08:47:47;;;;;;;13.30;7.67;;;9.90;99.90;;;;;;4974575;28;20618;-68
2022/07/15 08:50:17;;;;;;;20.07;8.97;;;9.90;99.90;;;;;;4973853;28;20222;-69
2022/07/15 08:52:47;;;;;;;16.83;9.50;;;9.90;99.90;;;;;;4974456;28;20171;-69
2022/07/15 08:55:16;;;;;;;14.33;8.83;;;9.90;99.90;;;;;;4965698;28;20230;-69
2022/07/15 08:57:48;;;;;;;15.40;9.33;;;9.90;99.90;;;;;;4955097;29;20185;-69
2022/07/15 09:00:16;;;;;;;12.40;8.47;;;9.90;99.90;;;;;;4955647;28;20176;-69
2022/07/15 09:02:45;;;;;;;16.33;8.50;;;9.80;99.90;;;;;;4958900;28;20206;-69
2022/07/15 09:05:29;;;;;;;16.70;8.03;;;9.70;99.90;;;;;;4965732;28;20236;-70
2022/07/15 09:08:04;;;;;;;13.80;8.33;;;9.60;99.90;;;;;;4978079;28;20176;-69
2022/07/15 09:10:51;;;;;;;13.70;8.00;;;9.60;99.90;;;;;;4971293;28;20211;-69
2022/07/15 09:13:31;;;;;;;13.33;7.30;;;9.50;99.90;;;;;;4958736;29;20238;-70
2022/07/15 09:16:10;;;;;;;15.77;7.90;;;9.40;99.90;;;;;;4971503;28;20188;-69
2022/07/15 09:18:41;;;;;;;13.83;8.30;;;9.30;99.90;;;;;;4978205;28;20278;-69
2022/07/15 09:21:23;;;;;;;13.07;8.00;;;9.30;99.90;;;;;;4969963;28;20188;-69
2022/07/15 09:23:53;;;;;;;18.10;8.37;;;9.20;99.90;;;;;;4958254;28;20194;-70
2022/07/15 09:26:26;;;;;;;13.83;8.47;;;9.10;99.90;;;;;;4958420;28;20744;-70
2022/07/15 09:28:54;;;;;;;14.27;7.70;;;9.10;99.90;;;;;;4958450;28;20215;-71
2022/07/15 09:34:17;;;;;;;12.77;8.37;;;8.90;99.90;;;;;;4958273;29;20243;-70
2022/07/15 09:36:52;;;;;;;11.30;8.53;;;8.90;99.90;;;;;;4958261;28;20209;-70
2022/07/15 09:39:24;;;;;;;13.77;9.63;;;8.80;99.90;;;;;;4957921;28;20281;-70
2022/07/15 09:41:53;;;;;;;15.23;8.60;;;8.80;99.90;;;;;;4958534;28;20708;-70
2022/07/15 09:44:23;;;;;;;17.80;9.00;;;8.70;99.90;;;;;;4957952;29;20177;-69
2022/07/15 09:46:57;;;;;;;19.20;8.77;;;8.70;99.90;;;;;;4958052;28;20644;-71
2022/07/15 09:49:27;;;;;;;19.53;10.67;;;8.60;99.90;;;;;;4958238;28;20242;-69
2022/07/15 09:52:08;;;;;;;18.80;10.77;;;8.50;99.90;;;;;;4957764;29;20282;-69
2022/07/15 09:54:38;;;;;;;17.23;11.50;;;8.50;99.90;;;;;;4957879;29;20206;-70
2022/07/15 09:57:15;;;;;;;19.00;11.30;;;8.50;99.90;;;;;;4957108;29;20212;-69
2022/07/15 09:59:47;;;;;;;19.03;10.37;;;8.50;99.90;;;;;;4957815;28;20187;-70
2022/07/15 10:02:16;;;;;;;17.03;10.00;;;8.40;99.90;;;;;;4957910;28;20179;-70
2022/07/15 10:04:46;;;;;;;24.97;11.03;;;8.30;99.90;;;;;;4957902;28;20187;-69
2022/07/15 10:07:14;;;;;;;17.23;10.37;;;8.30;99.90;;;;;;4957620;28;20202;-69
2022/07/15 10:09:43;;;;;;;16.03;10.57;;;8.20;99.90;;;;;;4957508;28;20730;-69
2022/07/15 10:12:25;;;;;;;14.33;10.23;;;8.20;99.90;;;;;;4957209;28;20242;-69
2022/07/15 10:15:09;;;;;;;18.10;10.30;;;8.10;99.90;;;;;;4957449;29;20200;-70
2022/07/15 10:18:01;;;;;;;13.63;9.00;;;8.10;99.90;;;;;;4957399;29;20183;-69
2022/07/15 10:20:56;;;;;;;18.43;10.20;;;8.10;99.90;;;;;;4957432;28;20190;-70
2022/07/15 10:24:08;;;;;;;16.97;9.73;;;8.00;99.90;;;;;;4957759;29;20179;-70
2022/07/15 10:26:55;;;;;;;15.07;10.07;;;7.90;99.90;;;;;;4957393;28;20230;-69
2022/07/15 10:29:24;;;;;;;14.30;9.43;;;7.90;99.90;;;;;;4957281;29;20267;-69
2022/07/15 10:31:59;;;;;;;13.63;8.70;;;7.90;99.90;;;;;;4957067;29;20710;-68
2022/07/15 10:34:34;;;;;;;15.83;10.10;;;7.80;99.90;;;;;;4957182;29;20670;-69
2022/07/15 10:37:10;;;;;;;16.70;10.53;;;7.70;99.90;;;;;;4957244;29;20186;-70
2022/07/15 10:40:07;;;;;;;12.87;9.03;;;7.70;99.90;;;;;;4956835;28;20284;-69
2022/07/15 10:43:03;;;;;;;18.63;10.33;;;7.70;99.90;;;;;;4957072;29;20183;-70
2022/07/15 10:45:30;;;;;;;18.00;10.03;;;7.60;99.90;;;;;;4959058;28;20225;-69
2022/07/15 10:48:28;;;;;;;16.77;9.73;;;7.70;99.90;;;;;;4957001;29;20713;-69
2022/07/15 10:50:56;;;;;;;14.77;10.03;;;7.60;99.90;;;;;;4956933;29;20215;-69
2022/07/15 10:53:27;;;;;;;18.93;10.43;;;7.60;99.90;;;;;;4957153;28;20199;-69
2022/07/15 10:55:55;;;;;;;18.40;11.50;;;7.50;99.90;;;;;;4976069;28;20655;-68
2022/07/15 10:58:23;;;;;;;22.47;11.60;;;7.40;99.90;;;;;;4976100;28;20189;-68
2022/07/15 11:00:52;;;;;;;16.63;11.00;;;7.40;99.90;;;;;;4975876;28;20659;-69
2022/07/15 11:03:21;;;;;;;14.60;9.60;;;7.40;99.90;;;;;;4975472;28;20590;-68
2022/07/15 11:05:54;;;;;;;16.43;9.97;;;7.40;99.90;;;;;;4975231;28;20199;-68
2022/07/15 11:08:34;;;;;;;15.07;9.67;;;7.40;99.90;;;;;;4975855;28;20202;-68
2022/07/15 11:11:17;;;;;;;12.73;10.50;;;7.30;99.90;;;;;;4968921;28;20246;-69
2022/07/15 11:13:47;;;;;;;15.07;9.67;;;7.30;99.90;;;;;;4960036;28;20184;-69
2022/07/15 11:16:19;;;;;;;20.87;10.60;;;7.30;99.90;;;;;;4956342;28;20270;-68
2022/07/15 11:18:55;;;;;;;15.87;9.40;;;7.30;99.90;;;;;;4956108;28;20187;-69
2022/07/15 11:21:23;;;;;;;18.07;10.03;;;7.30;99.90;;;;;;4956981;28;20199;-69
2022/07/15 11:23:55;;;;;;;19.23;10.37;;;7.20;99.90;;;;;;4955369;28;20680;-69
2022/07/15 11:26:24;;;;;;;16.13;9.87;;;7.20;99.90;;;;;;4956042;28;20569;-69
2022/07/15 11:28:58;;;;;;;20.33;11.23;;;7.10;99.90;;;;;;4956191;28;20191;-69
2022/07/15 11:31:26;;;;;;;16.90;11.57;;;7.00;99.90;;;;;;4969619;28;20204;-69
2022/07/15 11:33:55;;;;;;;22.17;14.80;;;7.00;99.90;;;;;;4971731;28;20190;-68
2022/07/15 11:36:23;;;;;;;25.80;15.67;;;6.90;99.90;;;;;;4956155;28;20658;-68
2022/07/15 11:38:52;;;;;;;21.40;13.23;;;6.90;99.90;;;;;;4955773;28;20686;-69
2022/07/15 11:46:56;;;;;;;21.03;11.90;;;6.80;99.90;;;;;;4975307;28;20229;-70
2022/07/15 11:49:38;;;;;;;16.57;11.47;;;6.80;99.90;;;;;;4974925;28;20688;-70
2022/07/15 11:52:07;;;;;;;19.13;11.37;;;6.80;99.90;;;;;;4958391;28;20589;-69
2022/07/15 11:54:40;;;;;;;19.93;11.57;;;6.70;99.90;;;;;;4955656;29;20184;-69
2022/07/15 11:57:11;;;;;;;17.30;11.13;;;6.70;99.90;;;;;;4973339;28;20233;-70
2022/07/15 11:59:40;;;;;;;21.47;10.33;;;6.70;99.90;;;;;;4974937;28;20182;-69
2022/07/15 12:02:14;;;;;;;14.67;10.43;;;6.60;99.90;;;;;;4958422;28;20283;-69
2022/07/15 12:04:42;;;;;;;22.47;12.00;;;6.60;99.90;;;;;;4955477;28;20171;-70
2022/07/15 12:07:10;;;;;;;15.53;10.60;;;6.60;99.90;;;;;;4955633;28;20542;-69
2022/07/15 12:09:43;;;;;;;15.93;11.50;;;6.50;99.90;;;;;;4955229;29;20303;-69
2022/07/15 12:12:12;;;;;;;18.93;12.20;;;6.50;99.90;;;;;;4971133;28;20194;-68
2022/07/15 12:14:40;;;;;;;17.93;11.43;;;6.50;99.90;;;;;;4974710;28;20184;-69
2022/07/15 12:17:09;;;;;;;21.03;12.00;;;6.50;99.90;;;;;;4974881;28;20177;-69
2022/07/15 12:19:38;;;;;;;16.20;10.90;;;6.40;99.90;;;;;;4956068;28;20194;-69
2022/07/15 12:22:10;;;;;;;17.70;11.67;;;6.40;99.90;;;;;;4969436;28;20179;-69
2022/07/15 12:24:43;;;;;;;18.90;11.13;;;6.40;99.90;;;;;;4973026;28;20284;-69
2022/07/15 12:27:13;;;;;;;16.90;11.07;;;6.30;99.90;;;;;;4974832;28;20190;-69
2022/07/15 12:29:41;;;;;;;22.53;12.63;;;6.40;99.90;;;;;;4974646;28;20241;-69
2022/07/15 12:32:12;;;;;;;18.17;11.60;;;6.30;99.90;;;;;;4974528;28;20192;-68
2022/07/15 12:34:50;;;;;;;15.77;11.40;;;6.30;99.90;;;;;;4974322;28;20553;-69
2022/07/15 12:37:47;;;;;;;16.33;11.70;;;6.30;99.90;;;;;;4974254;28;20561;-69
2022/07/15 12:40:24;;;;;;;24.63;11.83;;;6.30;99.90;;;;;;4970287;28;20230;-68
2022/07/15 12:42:53;;;;;;;19.43;11.23;;;6.30;99.90;;;;;;4955311;28;20214;-69
2022/07/15 12:45:26;;;;;;;22.77;12.37;;;6.20;99.90;;;;;;4955282;28;20191;-68
2022/07/15 12:48:03;;;;;;;15.17;10.67;;;6.10;99.90;;;;;;4955155;29;20184;-68
2022/07/15 12:50:57;;;;;;;19.53;12.47;;;6.10;99.90;;;;;;4972521;28;20312;-68
2022/07/15 12:53:27;;;;;;;19.17;11.80;;;6.10;99.90;;;;;;4973818;28;20700;-68
2022/07/15 12:56:01;;;;;;;18.13;11.27;;;6.10;99.90;;;;;;4974518;28;20189;-68
2022/07/15 12:58:37;;;;;;;19.03;11.30;;;6.10;99.90;;;;;;4974505;28;20174;-68
2022/07/15 13:01:08;;;;;;;17.53;10.90;;;6.00;99.90;;;;;;4960410;28;20206;-68
2022/07/15 13:03:36;;;;;;;22.57;13.13;;;6.00;99.90;;;;;;4955172;29;20690;-68
2022/07/15 13:06:05;;;;;;;24.90;12.53;;;6.00;99.90;;;;;;4954836;29;20176;-68
2022/07/15 13:08:35;;;;;;;18.50;11.83;;;6.00;99.90;;;;;;4954879;28;20187;-68
2022/07/15 13:11:05;;;;;;;20.17;12.83;;;6.00;99.90;;;;;;4967667;28;20228;-69
2022/07/15 13:13:36;;;;;;;20.60;13.37;;;6.00;99.90;;;;;;4973704;28;20187;-68